Sunday, December 17, 2017, 4:32 PM EST
Back to Local

KTAN, Taunton Municipal Airport

Location: East Taunton, MA, United States Lat: 41.883
Local Time: 4:32 PM EST (21:32 GMT) Lon: -71.017
Time Zone: US/Eastern Elev: 42 ft

Show me the last for .
Show Coded

Time T Td Feel RH Dir Speed Gust Alt SLP Vis Weather Sky Remarks
2017-12-17 15:52 29 4 25 33 Variable 3 - 30.23 30.23 10 CLR None
2017-12-17 14:52 30 4 25 32 270° 5 - 30.21 30.21 10 CLR None
2017-12-17 13:52 30 4 24 32 260° 6 - 30.21 30.21 10 CLR None
2017-12-17 12:52 29 3 25 32 320° 3 - 30.22 30.22 10 CLR 6-hr Min Temp (1pm): 5.0°F
6-hr Max Temp (1pm): 30.0°F
2017-12-17 11:52 28 4 20 34 290° 8 - 30.25 30.25 10 CLR None
2017-12-17 10:52 27 4 19 36 320° 7 - 30.26 30.26 10 CLR None
2017-12-17 09:52 24 8 16 49 Variable 7 - 30.27 30.27 10 CLR None
2017-12-17 08:52 17 14 - 87 - Calm - 30.27 30.27 10 CLR None
2017-12-17 07:52 8 6 - 91 - Calm - 30.26 30.26 10 CLR None
2017-12-17 06:52 5 2 - 86 - Calm - 30.26 30.25 10 CLR 6-hr Min Temp (7am): 5.0°F
6-hr Max Temp (7am): 12.9°F
2017-12-17 05:52 7 3 - 83 - Calm - 30.27 30.27 10 CLR None
2017-12-17 04:52 6 3 - 86 - Calm - 30.23 30.23 10 CLR None
2017-12-17 03:52 7 4 -2 86 270° 5 - 30.22 30.21 9 CLR None
2017-12-17 02:52 9 6 - 87 - Calm - 30.22 30.21 9 CLR None
2017-12-17 01:52 10 7 - 87 - Calm - 30.20 30.20 9 CLR None
2017-12-17 00:52 12 9 - 87 - Calm - 30.18 30.18 10 CLR 6-hr Min Temp (1am): 12.0°F
6-hr Max Temp (1am): 28.9°F
2017-12-16 23:52 16 13 - 87 - Calm - 30.17 30.17 10 CLR 24-hr Min Temp (12am): 15.1°F
24-hr Max Temp (12am): 33.1°F
2017-12-16 22:52 24 16 20 70 290° 3 - 30.16 30.16 10 CLR None
2017-12-16 21:52 26 16 21 65 290° 5 - 30.13 30.13 10 CLR None
2017-12-16 20:52 28 16 22 60 310° 6 - 30.12 30.12 10 CLR None
2017-12-16 19:52 28 18 23 65 290° 5 - 30.08 30.08 10 CLR None
2017-12-16 18:52 29 19 23 66 280° 6 - 30.05 30.05 10 BKN080 6-hr Min Temp (7pm): 26.1°F
6-hr Max Temp (7pm): 33.1°F
2017-12-16 17:52 30 18 23 60 290° 7 - 30.02 30.02 10 OVC085 None
2017-12-16 16:52 29 18 - 63 - Calm - 29.98 29.98 10 OVC110 None

Support USWX by starting your Amazon purchase here.